Terminal Aerodrome Forecast
Issued by NWS

Home | Current Version | Previous Version | Graphics & Text | Print | Product List | Glossary On
Versions: 1 2 3 4 5 6 7 8 9 10 11 12 13 14 15 16 17 18 19 20 21 22 23 24 25 26 27 28 29 30 31 32 33 34
000
FTUS43 KLOT 211503 AAA
TAFMDW
TAF AMD
KMDW 211503Z 2115/2212 25005KT P6SM FEW015 SCT035 BKN090
      TEMPO 2115/2117 5SM BR BKN025 OVC100
     FM212000 25005KT P6SM SCT025 SCT200
     FM212300 10006KT P6SM SKC
     FM220200 14005KT 3SM BR SKC
     FM220600 22007KT 5SM BR SKC=

USA.gov is the U.S. government's official web portal to all federal, state and local government web resources and services.